.
WxDataArchive / Data Records for 2015-03-07
2015-03-06 March 2015 2015-03-08

Data Records for Saturday, 07 March 2015

Time	Temp	Chill	HIndex	Humid	Dewpt	 Wind 	HiWind	WindDir	Rain 	Barom
-----	----	-----	------	-----	-----	------	------	-------	-----	-----
00:00	21.3	21.3	21.3	62	10.3	1	3	248	0.00	30.250 
00:05	21.3	21.3	21.3	62	10.3	1	3	248	0.00	30.250 
00:10	21.3	21.3	21.3	62	10.3	1	3	248	0.00	30.250 
00:15	21.3	21.3	21.3	62	10.3	0	2	248	0.00	30.242 
00:20	21.3	21.3	21.3	61	10.0	1	3	248	0.00	30.242 
00:25	21.3	21.3	21.3	61	10.0	1	3	248	0.00	30.242 
00:30	21.3	21.3	21.3	61	10.0	0	2	248	0.00	30.235 
00:35	21.4	21.4	21.4	61	10.1	1	4	248	0.00	30.235 
00:40	21.4	21.4	21.4	60	9.7	1	4	248	0.00	30.235 
00:45	21.4	21.4	21.4	60	9.7	1	4	248	0.00	30.232 
00:50	21.6	21.6	21.6	60	9.9	1	5	248	0.00	30.232 
00:55	21.6	21.6	21.6	59	9.5	1	3	248	0.00	30.232 
01:00	21.8	21.8	21.8	59	9.7	1	4	248	0.00	30.230 
01:05	21.8	21.8	21.8	59	9.7	0	3	248	0.00	30.230 
01:10	21.8	21.8	21.8	59	9.7	1	3	248	0.00	30.230 
01:15	21.8	21.8	21.8	59	9.7	1	4	248	0.00	30.223 
01:20	21.9	21.9	21.9	58	9.4	1	4	248	0.00	30.223 
01:25	21.9	21.9	21.9	58	9.4	1	3	248	0.00	30.223 
01:30	21.9	21.9	21.9	58	9.4	1	4	248	0.00	30.221 
01:35	21.9	21.9	21.9	58	9.4	1	4	248	0.00	30.221 
01:40	22.1	22.1	22.1	58	9.6	1	5	248	0.00	30.221 
01:45	21.9	21.9	21.9	58	9.4	1	5	248	0.00	30.216 
01:50	21.9	21.9	21.9	58	9.4	0	3	248	0.00	30.216 
01:55	21.9	21.9	21.9	59	9.8	0	3	248	0.00	30.216 
02:00	21.8	21.8	21.8	59	9.7	0	3	248	0.00	30.210 
02:05	21.8	21.8	21.8	59	9.7	0	2	248	0.00	30.210 
02:10	21.8	21.8	21.8	60	10.1	0	2	248	0.00	30.210 
02:15	21.8	21.8	21.8	60	10.1	0	4	248	0.00	30.202 
02:20	21.8	21.8	21.8	60	10.1	0	3	248	0.00	30.202 
02:25	21.6	21.6	21.6	60	9.9	0	2	248	0.00	30.202 
02:30	21.6	21.6	21.6	60	9.9	0	2	248	0.00	30.198 
02:35	21.6	21.6	21.6	61	10.3	0	3	248	0.00	30.198 
02:40	21.6	21.6	21.6	61	10.3	0	2	248	0.00	30.198 
02:45	21.4	21.4	21.4	61	10.1	0	1	248	0.00	30.193 
02:50	21.4	21.4	21.4	61	10.1	0	2	248	0.00	30.193 
02:55	21.6	21.6	21.6	61	10.3	1	6	248	0.00	30.193 
03:00	21.6	21.6	21.6	61	10.3	0	3	225	0.00	30.184 
03:05	21.6	21.6	21.6	61	10.3	0	3	225	0.00	30.184 
03:10	21.8	21.8	21.8	62	10.8	0	3	225	0.00	30.184 
03:15	21.8	21.8	21.8	62	10.8	0	2	248	0.00	30.181 
03:20	21.8	21.8	21.8	62	10.8	0	2	248	0.00	30.181 
03:25	21.9	21.9	21.9	62	10.9	1	3	225	0.00	30.181 
03:30	22.1	22.1	22.1	62	11.1	0	3	248	0.00	30.171 
03:35	22.2	22.2	22.2	62	11.2	1	4	248	0.00	30.171 
03:40	22.2	22.2	22.2	62	11.2	0	3	248	0.00	30.171 
03:45	22.2	22.2	22.2	62	11.2	0	3	248	0.00	30.166 
03:50	22.2	22.2	22.2	62	11.2	0	2	248	0.00	30.166 
03:55	22.4	22.4	22.4	62	11.4	0	3	248	0.00	30.166 
04:00	22.5	22.5	22.5	62	11.5	0	4	248	0.00	30.150 
04:05	22.7	22.7	22.7	62	11.7	0	3	248	0.00	30.150 
04:10	22.9	22.9	22.9	63	12.2	0	3	248	0.00	30.150 
04:15	23.0	23.0	23.0	63	12.3	1	4	248	0.00	30.134 
04:20	23.2	23.2	23.2	62	12.1	1	5	248	0.00	30.134 
04:25	23.3	23.3	23.3	62	12.2	0	3	248	0.00	30.134 
04:30	23.5	23.5	23.5	62	12.4	1	4	248	0.00	30.130 
04:35	23.6	23.6	23.6	62	12.5	1	4	248	0.00	30.130 
04:40	23.6	23.6	23.6	63	12.9	0	3	248	0.00	30.130 
04:45	23.6	23.6	23.6	63	12.9	0	2	248	0.00	30.125 
04:50	23.8	23.8	23.8	63	13.1	0	5	248	0.00	30.125 
04:55	23.9	23.9	23.9	63	13.2	1	3	248	0.00	30.125 
05:00	23.9	23.9	23.9	63	13.2	0	3	270	0.00	30.128 
05:05	24.1	24.1	24.1	63	13.4	0	3	270	0.00	30.128 
05:10	24.2	24.2	24.2	63	13.4	1	4	248	0.00	30.128 
05:15	24.2	24.2	24.2	63	13.4	1	4	248	0.00	30.129 
05:20	24.4	24.4	24.4	63	13.6	1	5	270	0.00	30.129 
05:25	24.4	24.4	24.4	63	13.6	1	5	248	0.00	30.129 
05:30	24.5	24.5	24.5	64	14.1	1	3	68	0.00	30.127 
05:35	24.5	24.5	24.5	64	14.1	0	3	248	0.00	30.127 
05:40	24.5	24.5	24.5	64	14.1	1	4	248	0.00	30.127 
05:45	24.5	24.5	24.5	64	14.1	1	4	248	0.00	30.130 
05:50	24.5	24.5	24.5	64	14.1	1	4	248	0.00	30.130 
05:55	24.5	24.5	24.5	65	14.4	0	2	248	0.00	30.130 
06:00	24.5	24.5	24.5	65	14.4	1	5	248	0.00	30.132 
06:05	24.5	24.5	24.5	65	14.4	1	3	248	0.00	30.132 
06:10	24.5	24.5	24.5	65	14.4	1	5	248	0.00	30.132 
06:15	24.7	24.7	24.7	66	15.0	0	2	248	0.00	30.130 
06:20	24.7	24.7	24.7	66	15.0	0	4	248	0.00	30.130 
06:25	24.7	24.7	24.7	66	15.0	0	4	248	0.00	30.130 
06:30	24.7	24.7	24.7	66	15.0	1	4	248	0.00	30.127 
06:35	24.7	24.7	24.7	67	15.3	0	3	248	0.00	30.127 
06:40	24.7	24.7	24.7	67	15.3	0	2	248	0.00	30.127 
06:45	24.7	24.7	24.7	67	15.3	0	3	248	0.00	30.121 
06:50	24.7	24.7	24.7	68	15.7	0	3	248	0.00	30.121 
06:55	24.7	24.7	24.7	68	15.7	1	3	292	0.00	30.121 
07:00	24.8	24.8	24.8	68	15.8	1	3	270	0.00	30.120 
07:05	25.0	25.0	25.0	69	16.3	1	4	248	0.00	30.120 
07:10	25.1	25.1	25.1	69	16.4	0	2	248	0.00	30.120 
07:15	25.1	25.1	25.1	69	16.4	0	3	248	0.00	30.122 
07:20	25.3	25.3	25.3	69	16.6	1	3	248	0.00	30.122 
07:25	25.4	25.4	25.4	69	16.7	0	2	248	0.00	30.122 
07:30	25.6	25.6	25.6	69	16.9	1	4	248	0.00	30.127 
07:35	25.7	25.7	25.7	70	17.3	0	2	248	0.00	30.127 
07:40	26.0	26.0	26.0	70	17.6	1	4	248	0.00	30.127 
07:45	26.1	26.1	26.1	69	17.3	1	3	248	0.00	30.123 
07:50	26.3	26.3	26.3	69	17.5	0	3	248	0.00	30.123 
07:55	26.4	26.4	26.4	69	17.6	0	4	248	0.00	30.123 
08:00	26.6	26.6	26.6	69	17.8	1	4	248	0.00	30.127 
08:05	26.7	26.7	26.7	69	17.9	1	3	248	0.00	30.127 
08:10	27.0	27.0	27.0	69	18.2	0	2	248	0.00	30.127 
08:15	27.2	27.2	27.2	69	18.4	1	5	248	0.00	30.118 
08:20	27.5	27.5	27.5	69	18.7	1	5	270	0.00	30.118 
08:25	27.8	27.8	27.8	69	19.0	1	4	270	0.00	30.118 
08:30	28.1	28.1	28.1	69	19.3	0	4	270	0.00	30.113 
08:35	28.4	28.4	28.4	69	19.5	1	4	270	0.00	30.113 
08:40	28.8	28.8	28.8	69	19.9	1	7	270	0.00	30.113 
08:45	29.3	29.3	29.3	69	20.4	1	4	225	0.00	30.131 
08:50	29.7	29.7	29.7	69	20.8	1	5	248	0.00	30.131 
08:55	30.1	30.1	30.1	69	21.2	1	4	248	0.00	30.131 
09:00	30.7	30.7	30.7	68	21.4	1	4	248	0.00	30.133 
09:05	31.3	31.3	31.3	67	21.6	2	5	248	0.00	30.133 
09:10	31.6	31.6	31.6	67	21.9	1	4	248	0.00	30.133 
09:15	32.1	32.1	32.1	67	22.4	1	4	248	0.00	30.125 
09:20	32.5	32.5	32.5	67	22.8	1	4	248	0.00	30.125 
09:25	32.9	32.9	32.9	66	22.8	1	9	248	0.00	30.125 
09:30	33.5	33.5	33.5	66	23.4	1	4	248	0.00	30.109 
09:35	34.1	34.1	34.1	65	23.6	2	4	248	0.00	30.109 
09:40	34.6	34.6	34.6	65	24.1	2	5	248	0.00	30.109 
09:45	34.9	34.9	34.9	64	24.0	3	6	248	0.00	30.108 
09:50	35.3	35.3	35.3	64	24.4	2	6	248	0.00	30.108 
09:55	35.6	35.6	35.6	64	24.6	2	6	248	0.00	30.108 
10:00	35.8	35.8	35.8	63	24.5	2	5	248	0.00	30.095 
10:05	35.8	35.8	35.8	63	24.5	2	5	248	0.00	30.095 
10:10	35.6	35.6	35.6	64	24.6	2	7	248	0.00	30.095 
10:15	35.6	35.6	35.6	64	24.6	2	6	270	0.00	30.089 
10:20	35.6	35.6	35.6	63	24.3	2	7	248	0.00	30.089 
10:25	35.6	35.6	35.6	63	24.3	3	7	248	0.00	30.089 
10:30	35.8	35.8	35.8	63	24.5	2	6	248	0.00	30.079 
10:35	35.9	35.9	35.9	63	24.5	1	5	248	0.00	30.079 
10:40	36.6	36.6	36.6	63	25.2	1	6	248	0.00	30.079 
10:45	37.2	37.2	37.2	61	25.0	1	6	270	0.00	30.085 
10:50	37.5	37.5	37.5	60	24.9	2	9	225	0.00	30.085 
10:55	37.5	37.5	37.5	60	24.9	2	7	248	0.00	30.085 
11:00	37.8	37.8	37.8	61	25.6	2	6	248	0.00	30.080 
11:05	38.3	38.3	38.3	60	25.6	1	3	248	0.00	30.080 
11:10	38.9	38.9	38.9	59	25.8	1	4	248	0.00	30.080 
11:15	39.3	39.3	39.3	58	25.8	1	4	248	0.00	30.076 
11:20	39.5	39.5	39.5	57	25.5	3	11	248	0.00	30.076 
11:25	39.2	39.2	39.2	58	25.7	3	11	248	0.00	30.076 
11:30	39.2	39.2	39.2	59	26.1	1	5	248	0.00	30.074 
11:35	39.6	39.6	39.6	58	26.1	2	7	248	0.00	30.074 
11:40	40.1	40.1	40.1	57	26.1	2	6	248	0.00	30.074 
11:45	40.3	40.3	40.3	57	26.3	1	5	248	0.00	30.077 
11:50	40.9	40.9	40.9	56	26.4	2	6	270	0.00	30.077 
11:55	40.8	40.8	40.8	56	26.3	3	9	248	0.00	30.077 
12:00	40.9	40.9	40.9	56	26.4	3	9	248	0.00	30.076 
12:05	41.1	41.1	41.1	56	26.6	3	6	248	0.00	30.076 
12:10	41.5	41.5	41.5	56	27.0	2	6	248	0.00	30.076 
12:15	41.9	41.9	41.9	55	26.9	2	5	248	0.00	30.072 
12:20	42.3	42.3	42.3	55	27.3	2	5	270	0.00	30.072 
12:25	42.6	42.6	42.6	54	27.1	2	5	248	0.00	30.072 
12:30	42.6	42.6	42.6	54	27.1	2	5	248	0.00	30.072 
12:35	42.6	42.6	42.6	54	27.1	2	5	270	0.00	30.072 
12:40	42.8	42.8	42.8	54	27.3	2	7	270	0.00	30.072 
12:45	42.9	42.9	42.9	54	27.4	2	5	248	0.00	30.070 
12:50	42.9	42.9	42.9	54	27.4	2	5	248	0.00	30.070 
12:55	43.3	43.3	43.3	53	27.3	1	5	248	0.00	30.070 
13:00	43.6	43.6	43.6	53	27.6	1	6	248	0.00	30.062 
13:05	43.5	43.5	43.5	53	27.5	2	5	248	0.00	30.062 
13:10	43.3	43.3	43.3	54	27.8	1	4	248	0.00	30.062 
13:15	43.5	43.5	43.5	53	27.5	2	6	248	0.00	30.053 
13:20	43.3	43.3	43.3	53	27.3	2	6	248	0.00	30.053 
13:25	43.2	43.2	43.2	54	27.7	2	4	248	0.00	30.053 
13:30	43.3	43.3	43.3	54	27.8	1	5	248	0.00	30.049 
13:35	43.3	43.3	43.3	53	27.3	2	6	248	0.00	30.049 
13:40	43.3	43.3	43.3	53	27.3	2	6	248	0.00	30.049 
13:45	43.5	43.5	43.5	54	28.0	2	5	248	0.00	30.042 
13:50	43.5	43.5	43.5	53	27.5	2	9	248	0.00	30.042 
13:55	43.6	43.6	43.6	54	28.1	2	7	248	0.00	30.042 
14:00	43.6	43.6	43.6	54	28.1	2	6	270	0.00	30.037 
14:05	43.9	43.9	43.9	53	27.9	2	9	248	0.00	30.037 
14:10	44.1	44.1	44.1	53	28.1	1	4	248	0.00	30.037 
14:15	44.2	44.2	44.2	53	28.2	2	6	248	0.00	30.033 
14:20	44.3	44.3	44.3	52	27.8	2	5	248	0.00	30.033 
14:25	44.3	44.3	44.3	51	27.3	3	8	248	0.00	30.033 
14:30	44.3	44.3	44.3	52	27.8	2	5	248	0.00	30.023 
14:35	44.5	44.5	44.5	53	28.4	1	3	248	0.00	30.023 
14:40	44.6	44.6	44.6	52	28.1	1	3	248	0.00	30.023 
14:45	44.5	44.5	44.5	52	28.0	1	3	248	0.00	30.021 
14:50	44.3	44.3	44.3	52	27.8	2	6	248	0.00	30.021 
14:55	44.1	44.1	44.1	53	28.1	1	6	248	0.00	30.021 
15:00	43.9	43.9	43.9	53	27.9	2	7	248	0.00	30.020 
15:05	43.8	43.8	43.8	53	27.8	1	7	248	0.00	30.020 
15:10	44.2	44.2	44.2	53	28.2	1	5	248	0.00	30.020 
15:15	44.5	44.5	44.5	52	28.0	2	6	248	0.00	30.012 
15:20	44.2	44.2	44.2	53	28.2	2	7	248	0.00	30.012 
15:25	44.2	44.2	44.2	53	28.2	2	7	248	0.00	30.012 
15:30	44.5	44.5	44.5	53	28.4	1	6	248	0.00	30.015 
15:35	44.6	44.6	44.6	52	28.1	2	6	248	0.00	30.015 
15:40	44.5	44.5	44.5	53	28.4	1	9	248	0.00	30.015 
15:45	44.3	44.3	44.3	53	28.3	1	4	248	0.00	30.016 
15:50	44.1	44.1	44.1	54	28.5	1	5	248	0.00	30.016 
15:55	43.9	43.9	43.9	54	28.3	1	3	248	0.00	30.016 
16:00	43.8	43.8	43.8	54	28.3	2	5	270	0.00	30.019 
16:05	43.5	43.5	43.5	54	28.0	2	4	248	0.00	30.019 
16:10	43.5	43.5	43.5	55	28.4	1	4	248	0.00	30.019 
16:15	43.5	43.5	43.5	54	28.0	2	5	248	0.00	30.017 
16:20	43.6	43.6	43.6	54	28.1	1	6	248	0.00	30.017 
16:25	43.5	43.5	43.5	55	28.4	1	5	248	0.00	30.017 
16:30	43.5	43.5	43.5	55	28.4	1	3	248	0.00	30.012 
16:35	43.3	43.3	43.3	55	28.2	1	9	248	0.00	30.012 
16:40	43.2	43.2	43.2	55	28.1	2	6	248	0.00	30.012 
16:45	43.2	43.2	43.2	55	28.1	2	6	248	0.00	30.018 
16:50	43.2	43.2	43.2	56	28.6	1	5	248	0.00	30.018 
16:55	43.3	43.3	43.3	56	28.7	0	3	248	0.00	30.018 
17:00	43.2	43.2	43.2	56	28.6	1	6	248	0.00	30.017 
17:05	43.1	43.1	43.1	56	28.5	1	4	270	0.00	30.017 
17:10	42.9	42.9	42.9	56	28.3	2	9	248	0.00	30.017 
17:15	42.8	42.8	42.8	57	28.6	2	7	248	0.00	30.018 
17:20	42.8	42.8	42.8	57	28.6	1	4	248	0.00	30.018 
17:25	42.8	42.8	42.8	58	29.1	1	2	248	0.00	30.018 
17:30	42.6	42.6	42.6	57	28.4	1	3	248	0.00	30.018 
17:35	42.6	42.6	42.6	58	28.9	1	6	248	0.00	30.018 
17:40	42.5	42.5	42.5	58	28.8	0	3	225	0.00	30.018 
17:45	42.3	42.3	42.3	58	28.6	1	6	248	0.00	30.021 
17:50	42.2	42.2	42.2	58	28.5	1	4	248	0.00	30.021 
17:55	42.1	42.1	42.1	59	28.8	2	7	248	0.00	30.021 
18:00	41.9	41.9	41.9	59	28.6	1	4	248	0.00	30.022 
18:05	41.6	41.6	41.6	60	28.8	1	5	270	0.00	30.022 
18:10	41.6	41.6	41.6	60	28.8	1	4	248	0.00	30.022 
18:15	41.3	41.3	41.3	61	28.9	1	4	248	0.00	30.032 
18:20	41.2	41.2	41.2	61	28.8	1	5	248	0.00	30.032 
18:25	41.1	41.1	41.1	62	29.1	1	3	248	0.00	30.032 
18:30	40.9	40.9	40.9	62	28.9	1	3	248	0.00	30.036 
18:35	40.8	40.8	40.8	62	28.8	1	4	248	0.00	30.036 
18:40	40.6	40.6	40.6	63	29.0	1	4	248	0.00	30.036 
18:45	40.3	40.3	40.3	63	28.7	1	4	248	0.00	30.044 
18:50	40.3	40.3	40.3	64	29.1	1	6	270	0.00	30.044 
18:55	40.2	40.2	40.2	64	29.0	1	3	248	0.00	30.044 
19:00	40.1	40.1	40.1	64	28.9	1	4	248	0.00	30.046 
19:05	39.9	39.9	39.9	65	29.1	1	3	248	0.00	30.046 
19:10	39.9	39.9	39.9	65	29.1	1	5	248	0.00	30.046 
19:15	39.8	39.8	39.8	65	29.0	1	3	248	0.00	30.051 
19:20	39.8	39.8	39.8	66	29.4	1	4	248	0.00	30.051 
19:25	39.6	39.6	39.6	66	29.2	1	3	248	0.00	30.051 
19:30	39.5	39.5	39.5	67	29.5	1	3	248	0.00	30.053 
19:35	39.3	39.3	39.3	68	29.6	1	4	248	0.00	30.053 
19:40	39.2	39.2	39.2	68	29.5	1	3	248	0.00	30.053 
19:45	39.1	39.1	39.1	69	29.8	1	4	248	0.00	30.055 
19:50	38.9	38.9	38.9	69	29.6	1	3	248	0.00	30.055 
19:55	38.6	38.6	38.6	70	29.7	0	2	248	0.00	30.055 
20:00	38.5	38.5	38.5	71	29.9	0	2	248	0.00	30.058 
20:05	38.3	38.3	38.3	71	29.7	0	3	248	0.00	30.058 
20:10	38.3	38.3	38.3	72	30.1	0	2	248	0.00	30.058 
20:15	38.2	38.2	38.2	72	30.0	1	3	248	0.00	30.064 
20:20	38.2	38.2	38.2	73	30.3	1	4	270	0.00	30.064 
20:25	38.0	38.0	38.0	73	30.1	1	3	270	0.00	30.064 
20:30	38.0	38.0	38.0	74	30.5	1	4	248	0.00	30.067 
20:35	38.0	38.0	38.0	74	30.5	1	4	248	0.00	30.067 
20:40	37.9	37.9	37.9	75	30.7	1	3	248	0.00	30.067 
20:45	37.9	37.9	37.9	75	30.7	1	3	248	0.00	30.069 
20:50	37.8	37.8	37.8	75	30.6	1	4	248	0.00	30.069 
20:55	37.6	37.6	37.6	76	30.7	1	4	248	0.00	30.069 
21:00	37.5	37.5	37.5	76	30.6	1	2	248	0.00	30.077 
21:05	37.3	37.3	37.3	77	30.8	0	2	248	0.00	30.077 
21:10	37.2	37.2	37.2	77	30.7	0	2	248	0.00	30.077 
21:15	37.0	37.0	37.0	77	30.5	0	2	248	0.00	30.077 
21:20	36.9	36.9	36.9	78	30.7	0	1	248	0.00	30.077 
21:25	36.9	36.9	36.9	78	30.7	0	2	248	0.00	30.077 
21:30	36.8	36.8	36.8	78	30.6	0	2	248	0.00	30.079 
21:35	36.8	36.8	36.8	78	30.6	0	1	248	0.00	30.079 
21:40	36.6	36.6	36.6	78	30.4	0	1	248	0.00	30.079 
21:45	36.3	36.3	36.3	79	30.4	0	1	248	0.00	30.080 
21:50	36.2	36.2	36.2	79	30.3	0	1	248	0.00	30.080 
21:55	35.9	35.9	35.9	79	30.0	0	1	248	0.00	30.080 
22:00	35.9	35.9	35.9	80	30.3	0	2	248	0.00	30.085 
22:05	35.8	35.8	35.8	80	30.2	0	1	248	0.00	30.085 
22:10	35.6	35.6	35.6	80	30.1	0	1	248	0.00	30.085 
22:15	35.5	35.5	35.5	80	30.0	0	1	248	0.00	30.087 
22:20	35.5	35.5	35.5	81	30.3	0	1	248	0.00	30.087 
22:25	35.3	35.3	35.3	81	30.1	0	0	---	0.00	30.087 
22:30	35.0	35.0	35.0	81	29.8	0	1	248	0.00	30.086 
22:35	34.9	34.9	34.9	81	29.7	0	0	---	0.00	30.086 
22:40	34.6	34.6	34.6	81	29.4	0	0	---	0.00	30.086 
22:45	34.4	34.4	34.4	81	29.2	0	0	---	0.00	30.095 
22:50	34.3	34.3	34.3	82	29.4	0	0	---	0.00	30.095 
22:55	34.1	34.1	34.1	82	29.2	0	1	248	0.00	30.095 
23:00	34.1	34.1	34.1	82	29.2	0	1	248	0.00	30.107 
23:05	34.1	34.1	34.1	83	29.5	0	1	248	0.00	30.107 
23:10	34.1	34.1	34.1	83	29.5	0	1	248	0.00	30.107 
23:15	34.1	34.1	34.1	83	29.5	0	1	248	0.00	30.109 
23:20	34.1	34.1	34.1	83	29.5	0	1	248	0.00	30.109 
23:25	34.0	34.0	34.0	83	29.4	0	1	248	0.00	30.109 
23:30	34.0	34.0	34.0	82	29.1	0	1	248	0.00	30.112 
23:35	33.8	33.8	33.8	82	28.9	0	1	248	0.00	30.112 
23:40	33.8	33.8	33.8	83	29.2	0	2	248	0.00	30.112 
23:45	33.8	33.8	33.8	83	29.2	0	1	248	0.00	30.118 
23:50	33.8	33.8	33.8	83	29.2	0	1	248	0.00	30.118 
23:55	33.7	33.7	33.7	83	29.1	0	1	248	0.00	30.118 

CoCoRaHS
IN-AL-39
A2 Web Hosting
Creative Commons License
GoDaddy
search engine by freefind advanced

loaded 2018-11-17 12:28:42 • last modified 2010-11-18 10:43:29
Privacy PolicyDisclaimer
• wx.awcolley.com is powered by PmWiki v.2002016 •
• all content (unless otherwise noted) © 2018 A W Colley